Time;durP1;ratioP1;P1;durP2;ratioP2;P2;SDS_P1;SDS_P2;PMS_P1;PMS_P2;Temp;Humidity;BMP_temperature;BMP_pressure;BME280_temperature;BME280_humidity;BME280_pressure;Samples;Min_cycle;Max_cycle;Signal;HPM_P1;HPM_P2
2021/09/08 00:01:01;;;;;;;8.43;4.95;;;25.40;99.90;;;;;;5093352;28;20061;-66
2021/09/08 00:03:26;;;;;;;6.13;5.13;;;25.40;99.90;;;;;;5110052;28;20098;-66
2021/09/08 00:05:54;;;;;;;6.25;5.18;;;25.40;99.90;;;;;;5095686;28;20032;-66
2021/09/08 00:08:20;;;;;;;11.48;5.60;;;25.40;99.90;;;;;;5094664;28;20027;-66
2021/09/08 00:10:45;;;;;;;5.93;4.80;;;25.40;99.90;;;;;;5093541;28;20385;-66
2021/09/08 00:13:11;;;;;;;9.52;5.38;;;25.40;99.90;;;;;;5114885;28;20032;-66
2021/09/08 00:15:37;;;;;;;6.50;5.30;;;25.40;99.90;;;;;;5115284;28;20030;-66
2021/09/08 00:18:03;;;;;;;6.60;5.00;;;25.40;99.90;;;;;;5102877;28;20097;-66
2021/09/08 00:20:28;;;;;;;6.35;5.22;;;25.40;99.90;;;;;;5095868;28;20388;-66
2021/09/08 00:22:54;;;;;;;7.18;5.03;;;25.40;99.90;;;;;;5113829;28;20027;-65
2021/09/08 00:25:19;;;;;;;8.60;4.63;;;25.40;99.90;;;;;;5114313;28;20055;-66
2021/09/08 00:27:45;;;;;;;7.25;5.20;;;25.40;99.90;;;;;;5109995;28;20028;-66
2021/09/08 00:30:12;;;;;;;5.28;4.68;;;25.40;99.90;;;;;;5096818;28;20020;-66
2021/09/08 00:32:37;;;;;;;6.05;5.00;;;25.40;99.90;;;;;;5094447;28;20107;-66
2021/09/08 00:35:05;;;;;;;6.38;5.40;;;25.40;99.90;;;;;;5099072;28;20441;-66
2021/09/08 00:37:31;;;;;;;6.68;4.82;;;25.40;99.90;;;;;;5110713;28;20035;-65
2021/09/08 00:39:56;;;;;;;7.35;5.07;;;25.40;99.90;;;;;;5096387;28;20460;-65
2021/09/08 00:42:22;;;;;;;8.88;5.63;;;25.40;99.90;;;;;;5114388;28;20035;-66
2021/09/08 00:44:47;;;;;;;7.53;5.70;;;25.40;99.90;;;;;;5112332;28;20387;-66
2021/09/08 00:47:17;;;;;;;8.05;5.25;;;25.40;99.90;;;;;;5113830;28;20066;-66
2021/09/08 00:49:46;;;;;;;6.57;5.28;;;25.40;99.90;;;;;;5108540;28;20066;-66
2021/09/08 00:52:13;;;;;;;7.53;4.80;;;25.40;99.90;;;;;;5114196;28;20035;-66
2021/09/08 00:54:40;;;;;;;6.72;5.35;;;25.40;99.90;;;;;;5113921;28;20463;-66
2021/09/08 00:57:08;;;;;;;7.75;4.97;;;25.40;99.90;;;;;;5112601;28;20056;-66
2021/09/08 00:59:35;;;;;;;5.38;4.82;;;25.40;99.90;;;;;;5101502;28;20051;-66
2021/09/08 01:02:04;;;;;;;7.60;4.88;;;25.40;99.90;;;;;;5097729;28;20386;-66
2021/09/08 01:04:30;;;;;;;6.05;5.43;;;25.40;99.90;;;;;;5112186;28;20491;-65
2021/09/08 01:07:00;;;;;;;5.53;4.93;;;25.40;99.90;;;;;;5096120;28;20036;-65
2021/09/08 01:09:27;;;;;;;6.25;5.32;;;25.30;99.90;;;;;;5096376;28;20016;-66
2021/09/08 01:11:53;;;;;;;6.15;5.00;;;25.40;99.90;;;;;;5094500;28;20427;-66
2021/09/08 01:14:20;;;;;;;6.45;5.05;;;25.30;99.90;;;;;;5107264;28;20016;-66
2021/09/08 01:16:56;;;;;;;5.85;5.10;;;25.40;99.90;;;;;;5103254;28;20032;-65
2021/09/08 01:19:22;;;;;;;5.50;4.70;;;25.30;99.90;;;;;;5113910;28;20020;-66
2021/09/08 01:21:49;;;;;;;5.43;4.55;;;25.30;99.90;;;;;;5104017;28;20017;-66
2021/09/08 01:24:15;;;;;;;5.85;4.82;;;25.30;99.90;;;;;;5093173;28;20062;-65
2021/09/08 01:26:44;;;;;;;8.07;4.80;;;25.30;99.90;;;;;;5099203;28;20027;-65
2021/09/08 01:29:10;;;;;;;5.40;4.82;;;25.40;99.90;;;;;;5095093;28;20467;-66
2021/09/08 01:31:36;;;;;;;6.95;5.00;;;25.30;99.90;;;;;;5112915;28;20118;-66
2021/09/08 01:34:03;;;;;;;6.28;4.90;;;25.30;99.90;;;;;;5094484;28;20036;-65
2021/09/08 01:36:35;;;;;;;5.45;4.68;;;25.30;99.90;;;;;;5102674;28;20518;-67
2021/09/08 01:39:03;;;;;;;5.63;4.40;;;25.30;99.90;;;;;;5111257;28;20495;-67
2021/09/08 01:41:28;;;;;;;5.18;4.68;;;25.30;99.90;;;;;;5100849;28;20035;-66
2021/09/08 01:43:54;;;;;;;6.18;4.78;;;25.30;99.90;;;;;;5092341;28;20476;-66
2021/09/08 01:46:21;;;;;;;6.28;4.93;;;25.30;99.90;;;;;;5092691;28;20035;-65
2021/09/08 01:48:46;;;;;;;6.57;5.22;;;25.30;99.90;;;;;;5105607;28;20031;-65
2021/09/08 01:51:12;;;;;;;5.72;5.03;;;25.30;99.90;;;;;;5107745;28;20419;-65
2021/09/08 01:53:38;;;;;;;5.03;4.53;;;25.30;99.90;;;;;;5093079;28;20086;-65
2021/09/08 01:56:04;;;;;;;5.72;4.55;;;25.30;99.90;;;;;;5092380;28;20020;-66
2021/09/08 01:58:31;;;;;;;5.60;4.70;;;25.30;99.90;;;;;;5104656;28;20483;-65
2021/09/08 02:00:57;;;;;;;5.97;4.80;;;25.30;99.90;;;;;;5092419;28;20024;-66
2021/09/08 02:03:23;;;;;;;6.05;4.60;;;25.30;99.90;;;;;;5105016;28;20110;-66
2021/09/08 02:05:49;;;;;;;7.85;5.38;;;25.30;99.90;;;;;;5109292;28;20165;-66
2021/09/08 02:08:15;;;;;;;5.78;4.95;;;25.30;99.90;;;;;;5111637;28;20032;-66
2021/09/08 02:10:40;;;;;;;5.10;4.60;;;25.30;99.90;;;;;;5103757;28;20027;-65
2021/09/08 02:13:06;;;;;;;6.53;5.15;;;25.30;99.90;;;;;;5074142;28;20040;-65
2021/09/08 02:15:33;;;;;;;5.07;4.43;;;25.30;99.90;;;;;;5092074;28;20376;-65
2021/09/08 02:17:58;;;;;;;5.88;4.68;;;25.20;99.90;;;;;;5091818;28;20028;-66
2021/09/08 02:20:24;;;;;;;5.20;4.57;;;25.20;99.90;;;;;;5071835;28;20028;-65
2021/09/08 02:22:49;;;;;;;5.13;4.57;;;25.20;99.90;;;;;;5106488;28;20110;-66
2021/09/08 02:25:15;;;;;;;5.72;5.13;;;25.30;99.90;;;;;;5112074;28;20051;-65
2021/09/08 02:27:41;;;;;;;5.88;4.70;;;25.20;99.90;;;;;;5102604;28;20077;-66
2021/09/08 02:30:07;;;;;;;6.03;4.68;;;25.20;99.90;;;;;;5092399;28;20028;-66
2021/09/08 02:32:33;;;;;;;5.07;4.57;;;25.20;99.90;;;;;;5079244;28;20051;-66
2021/09/08 02:34:59;;;;;;;5.13;4.63;;;25.20;99.90;;;;;;5112037;28;20480;-65
2021/09/08 02:37:25;;;;;;;5.43;4.82;;;25.20;99.90;;;;;;5106389;28;20032;-65
2021/09/08 02:39:50;;;;;;;4.90;4.40;;;25.20;99.90;;;;;;5111570;28;20487;-66
2021/09/08 02:42:16;;;;;;;4.85;4.35;;;25.20;99.90;;;;;;5088747;28;20103;-66
2021/09/08 02:44:43;;;;;;;5.47;4.43;;;25.20;99.90;;;;;;5073171;28;20107;-65
2021/09/08 02:47:10;;;;;;;6.82;4.88;;;25.20;99.90;;;;;;5105027;28;20047;-64
2021/09/08 02:49:36;;;;;;;5.18;4.50;;;25.20;99.90;;;;;;5110703;28;20034;-65
2021/09/08 02:52:02;;;;;;;4.82;4.35;;;25.10;99.90;;;;;;5108969;28;20426;-66
2021/09/08 02:54:27;;;;;;;7.03;5.15;;;25.20;99.90;;;;;;5110102;28;20062;-65
2021/09/08 02:56:53;;;;;;;6.03;4.80;;;25.10;99.90;;;;;;5105909;28;20053;-65
2021/09/08 02:59:18;;;;;;;5.57;4.88;;;25.20;99.90;;;;;;5085308;28;20479;-67
2021/09/08 03:01:44;;;;;;;5.10;4.32;;;25.10;99.90;;;;;;5111463;28;20073;-66
2021/09/08 03:04:10;;;;;;;5.68;4.60;;;25.10;99.90;;;;;;5096477;28;20383;-65
2021/09/08 03:06:35;;;;;;;6.25;5.18;;;25.10;99.90;;;;;;5092631;28;20483;-64
2021/09/08 03:09:01;;;;;;;9.63;4.70;;;25.10;99.90;;;;;;5103194;28;20032;-65
2021/09/08 03:11:27;;;;;;;5.35;4.55;;;25.10;99.90;;;;;;5091214;28;20063;-66
2021/09/08 03:13:53;;;;;;;5.22;4.55;;;25.10;99.90;;;;;;5090990;28;20126;-66
2021/09/08 03:16:19;;;;;;;7.80;4.45;;;25.10;99.90;;;;;;5095628;28;20039;-67
2021/09/08 03:18:45;;;;;;;5.57;5.00;;;25.10;99.90;;;;;;5090993;28;20495;-66
2021/09/08 03:21:10;;;;;;;5.30;4.40;;;25.10;99.90;;;;;;5091344;28;20020;-65
2021/09/08 03:23:36;;;;;;;5.60;4.72;;;25.10;99.90;;;;;;5105439;28;20482;-66
2021/09/08 03:26:02;;;;;;;4.70;4.20;;;25.10;99.90;;;;;;5094880;28;20112;-66
2021/09/08 03:28:27;;;;;;;5.30;4.80;;;25.00;99.90;;;;;;5103651;28;20418;-65
2021/09/08 03:30:54;;;;;;;4.97;4.53;;;25.00;99.90;;;;;;5092501;28;20042;-66
2021/09/08 03:33:20;;;;;;;6.55;4.47;;;25.10;99.90;;;;;;5090654;28;20032;-66
2021/09/08 03:35:45;;;;;;;6.28;5.18;;;25.00;99.90;;;;;;5091207;28;20027;-66
2021/09/08 03:38:11;;;;;;;5.90;5.20;;;25.00;99.90;;;;;;5081169;28;20110;-65
2021/09/08 03:40:37;;;;;;;5.10;4.60;;;25.00;99.90;;;;;;5111847;28;20467;-66
2021/09/08 03:43:03;;;;;;;5.82;4.60;;;25.00;99.90;;;;;;5110751;28;20035;-66
2021/09/08 03:45:29;;;;;;;6.15;5.30;;;25.00;99.90;;;;;;5109252;28;20024;-66
2021/09/08 03:47:54;;;;;;;5.70;4.57;;;25.00;99.90;;;;;;5070856;28;20021;-66
2021/09/08 03:50:20;;;;;;;5.88;4.93;;;25.00;99.90;;;;;;5103327;28;20034;-66
2021/09/08 03:52:46;;;;;;;7.22;4.80;;;25.00;99.90;;;;;;5104894;28;20036;-66
2021/09/08 03:55:11;;;;;;;5.78;5.00;;;25.00;99.90;;;;;;5092697;28;20023;-66
2021/09/08 03:57:37;;;;;;;5.72;4.45;;;24.90;99.90;;;;;;5111442;28;20480;-66
2021/09/08 04:00:07;;;;;;;5.10;4.57;;;25.00;99.90;;;;;;5111263;28;20060;-65
2021/09/08 04:02:32;;;;;;;5.22;4.72;;;24.90;99.90;;;;;;5108565;28;20479;-66
2021/09/08 04:04:58;;;;;;;5.25;4.72;;;24.90;99.90;;;;;;5072807;28;20035;-66
2021/09/08 04:07:27;;;;;;;6.60;4.90;;;24.90;99.90;;;;;;5091080;28;20028;-65
2021/09/08 04:09:54;;;;;;;6.22;5.15;;;24.90;99.90;;;;;;5092859;28;20491;-66
2021/09/08 04:12:19;;;;;;;6.65;5.18;;;24.90;99.90;;;;;;5093167;28;20038;-65
2021/09/08 04:14:45;;;;;;;5.38;4.63;;;24.90;99.90;;;;;;5094576;28;20024;-66
2021/09/08 04:17:11;;;;;;;8.18;5.55;;;24.90;99.90;;;;;;5094486;28;20036;-65
2021/09/08 04:19:36;;;;;;;5.65;5.03;;;24.90;99.90;;;;;;5107935;28;20024;-66
2021/09/08 04:22:02;;;;;;;6.65;5.20;;;24.90;99.90;;;;;;5094226;28;20039;-65
2021/09/08 04:24:28;;;;;;;8.30;5.18;;;24.90;99.90;;;;;;5093986;28;20032;-65
2021/09/08 04:26:54;;;;;;;7.28;4.80;;;24.90;99.90;;;;;;5103815;28;20114;-65
2021/09/08 04:29:19;;;;;;;5.10;4.40;;;24.90;99.90;;;;;;5113529;28;20391;-66
2021/09/08 04:31:45;;;;;;;8.70;4.38;;;24.90;99.90;;;;;;5114641;28;20027;-67
2021/09/08 04:34:11;;;;;;;6.10;4.47;;;24.90;99.90;;;;;;5114083;28;20036;-66
2021/09/08 04:36:36;;;;;;;5.57;4.65;;;24.90;99.90;;;;;;5114256;28;20023;-66
2021/09/08 04:39:03;;;;;;;6.15;4.38;;;24.90;99.90;;;;;;5106104;28;20028;-66
2021/09/08 04:41:28;;;;;;;4.40;4.00;;;24.90;99.90;;;;;;5093690;28;20472;-66
2021/09/08 04:43:54;;;;;;;6.25;4.43;;;24.80;99.90;;;;;;5093853;28;20081;-66
2021/09/08 04:46:20;;;;;;;6.47;4.93;;;24.80;99.90;;;;;;5107369;28;20024;-65
2021/09/08 04:48:46;;;;;;;5.40;4.32;;;24.80;99.90;;;;;;5106386;28;20032;-66
2021/09/08 04:51:11;;;;;;;7.05;4.85;;;24.80;99.90;;;;;;5104817;28;20028;-66
2021/09/08 04:53:37;;;;;;;7.03;4.88;;;24.80;99.90;;;;;;5093620;28;20032;-67
2021/09/08 04:56:04;;;;;;;5.40;4.28;;;24.80;99.90;;;;;;5113938;28;20652;-67
2021/09/08 04:58:29;;;;;;;5.07;4.47;;;24.80;99.90;;;;;;5113742;28;20028;-66
2021/09/08 05:00:55;;;;;;;5.70;5.00;;;24.80;99.90;;;;;;5112260;28;20016;-65
2021/09/08 05:03:21;;;;;;;5.28;4.38;;;24.80;99.90;;;;;;5112038;28;20034;-66
2021/09/08 05:05:46;;;;;;;5.40;4.78;;;24.70;99.90;;;;;;5113628;28;20027;-65
2021/09/08 05:08:12;;;;;;;5.72;4.15;;;24.70;99.90;;;;;;5110908;28;20039;-66
2021/09/08 05:10:37;;;;;;;4.88;4.28;;;24.70;99.90;;;;;;5096285;28;20053;-66
2021/09/08 05:13:03;;;;;;;6.53;4.75;;;24.70;99.90;;;;;;5093367;28;20495;-66
2021/09/08 05:15:29;;;;;;;6.07;4.15;;;24.70;99.90;;;;;;5093084;28;20028;-66
2021/09/08 05:17:55;;;;;;;5.72;4.60;;;24.70;99.90;;;;;;5096601;28;20024;-66
2021/09/08 05:20:20;;;;;;;6.72;4.88;;;24.70;99.90;;;;;;5104136;28;20023;-65
2021/09/08 05:22:46;;;;;;;6.07;4.90;;;24.70;99.90;;;;;;5094912;28;20467;-65
2021/09/08 05:25:12;;;;;;;5.43;4.50;;;24.70;99.90;;;;;;5093472;28;20071;-66
2021/09/08 05:27:37;;;;;;;6.03;4.35;;;24.70;99.90;;;;;;5093178;28;20035;-65
2021/09/08 05:30:04;;;;;;;5.47;4.43;;;24.60;99.90;;;;;;5095646;28;20427;-65
2021/09/08 05:32:30;;;;;;;6.70;4.15;;;24.60;99.90;;;;;;5100803;28;20081;-65
2021/09/08 05:34:56;;;;;;;9.07;4.72;;;24.60;99.90;;;;;;5093139;28;20067;-64
2021/09/08 05:37:23;;;;;;;5.45;4.63;;;24.60;99.90;;;;;;5092541;28;20483;-65
2021/09/08 05:39:49;;;;;;;4.95;4.53;;;24.60;99.90;;;;;;5100215;28;20399;-66
2021/09/08 05:42:14;;;;;;;5.32;4.57;;;24.60;99.90;;;;;;5105647;28;20028;-64
2021/09/08 05:44:40;;;;;;;6.75;4.85;;;24.60;99.90;;;;;;5111970;28;20034;-65
2021/09/08 05:47:06;;;;;;;5.22;4.72;;;24.60;99.90;;;;;;5111195;28;20024;-64
2021/09/08 05:49:31;;;;;;;8.60;7.45;;;24.60;99.90;;;;;;5103491;28;20035;-64
2021/09/08 05:51:57;;;;;;;10.73;9.05;;;24.60;99.90;;;;;;5103763;28;20162;-65
2021/09/08 05:54:23;;;;;;;12.00;9.32;;;24.50;99.90;;;;;;5092705;28;20114;-66
2021/09/08 05:56:48;;;;;;;12.20;9.80;;;24.40;99.90;;;;;;5105013;28;20391;-64
2021/09/08 05:59:14;;;;;;;13.75;10.15;;;24.40;99.90;;;;;;5094277;28;20039;-64
2021/09/08 06:01:40;;;;;;;9.25;6.82;;;24.30;99.90;;;;;;5106672;28;20027;-63
2021/09/08 06:04:06;;;;;;;8.48;6.80;;;24.30;99.90;;;;;;5092550;28;20475;-68
2021/09/08 06:06:31;;;;;;;8.13;6.93;;;24.30;99.90;;;;;;5101219;28;20051;-66
2021/09/08 06:08:57;;;;;;;8.63;6.97;;;24.30;99.90;;;;;;5093328;28;20035;-67
2021/09/08 06:11:22;;;;;;;11.15;8.73;;;24.30;99.90;;;;;;5106788;28;20055;-69
2021/09/08 06:13:48;;;;;;;12.68;9.50;;;24.30;99.90;;;;;;5111077;28;20035;-68
2021/09/08 06:16:14;;;;;;;15.32;10.07;;;24.20;99.90;;;;;;5092156;28;20498;-67
2021/09/08 06:18:40;;;;;;;13.05;9.45;;;24.20;99.90;;;;;;5092290;28;20032;-69
2021/09/08 06:21:05;;;;;;;16.17;10.10;;;24.20;99.90;;;;;;5074096;28;20155;-66
2021/09/08 06:23:31;;;;;;;16.08;10.65;;;24.20;99.90;;;;;;5092189;28;20563;-68
2021/09/08 06:25:56;;;;;;;18.50;11.25;;;24.10;99.90;;;;;;5092856;28;20099;-67
2021/09/08 06:28:23;;;;;;;17.05;10.40;;;24.10;99.90;;;;;;5091885;28;20051;-69
2021/09/08 06:30:49;;;;;;;15.90;10.68;;;24.10;99.90;;;;;;5092158;28;20024;-66
2021/09/08 06:33:15;;;;;;;14.23;10.75;;;24.10;99.90;;;;;;5092142;28;20040;-65
2021/09/08 06:35:41;;;;;;;17.70;12.95;;;24.00;99.90;;;;;;5097789;28;20027;-67
2021/09/08 06:38:06;;;;;;;18.27;12.50;;;24.00;99.90;;;;;;5102456;28;20541;-66
2021/09/08 06:40:32;;;;;;;17.67;11.85;;;24.00;99.90;;;;;;5091949;28;20024;-66
2021/09/08 06:42:58;;;;;;;16.52;12.27;;;23.90;99.90;;;;;;5091913;28;20028;-65
2021/09/08 06:45:24;;;;;;;15.55;11.60;;;23.90;99.90;;;;;;5091469;28;20525;-66
2021/09/08 06:47:49;;;;;;;17.65;12.45;;;23.80;99.90;;;;;;5091948;28;20063;-67
2021/09/08 06:50:15;;;;;;;14.45;11.57;;;23.80;99.90;;;;;;5091302;28;20111;-67
2021/09/08 06:52:42;;;;;;;21.38;12.40;;;23.80;99.90;;;;;;5090866;28;20054;-66
2021/09/08 06:55:09;;;;;;;17.25;11.43;;;23.80;99.90;;;;;;5090621;28;20024;-66
2021/09/08 06:57:34;;;;;;;16.58;11.68;;;23.80;99.90;;;;;;5094195;28;20031;-66
2021/09/08 07:00:00;;;;;;;17.98;11.55;;;23.80;99.90;;;;;;5090554;28;20032;-66
2021/09/08 07:02:25;;;;;;;17.80;11.68;;;23.70;99.90;;;;;;5091288;28;20721;-67
2021/09/08 07:04:51;;;;;;;17.83;12.00;;;23.70;99.90;;;;;;5090304;28;20429;-66
2021/09/08 07:07:20;;;;;;;20.23;11.88;;;23.70;99.90;;;;;;5090045;28;20031;-66
2021/09/08 07:09:46;;;;;;;17.48;11.25;;;23.70;99.90;;;;;;5088167;28;20425;-67
2021/09/08 07:12:12;;;;;;;17.33;11.75;;;23.70;99.90;;;;;;5091970;28;20478;-66
2021/09/08 07:14:37;;;;;;;16.25;12.15;;;23.60;99.90;;;;;;5098860;28;20012;-66
2021/09/08 07:17:03;;;;;;;18.38;12.20;;;23.60;99.90;;;;;;5090046;28;20028;-66
2021/09/08 07:19:29;;;;;;;16.65;11.43;;;23.60;99.90;;;;;;5098174;28;20024;-65
2021/09/08 07:21:54;;;;;;;14.75;11.35;;;23.60;99.90;;;;;;5090857;28;20051;-69
2021/09/08 07:24:20;;;;;;;16.95;10.77;;;23.60;99.90;;;;;;5073108;28;20536;-64
2021/09/08 07:26:46;;;;;;;16.77;11.70;;;23.50;99.90;;;;;;5090458;28;20016;-66
2021/09/08 07:29:12;;;;;;;15.07;10.73;;;23.50;99.90;;;;;;5090002;28;20028;-66
2021/09/08 07:31:37;;;;;;;15.23;11.05;;;23.50;99.90;;;;;;5090171;28;20133;-66
2021/09/08 07:34:03;;;;;;;14.63;10.40;;;23.50;99.90;;;;;;5090759;28;20028;-64
2021/09/08 07:36:29;;;;;;;14.98;11.00;;;23.50;99.90;;;;;;5089997;28;20023;-65
2021/09/08 07:38:55;;;;;;;14.82;9.73;;;23.50;99.90;;;;;;5089935;28;20514;-65
2021/09/08 07:41:21;;;;;;;16.30;10.00;;;23.40;99.90;;;;;;5090444;28;20028;-66
2021/09/08 07:43:48;;;;;;;14.63;9.40;;;23.40;99.90;;;;;;5091457;28;20050;-65
2021/09/08 07:46:15;;;;;;;12.95;9.50;;;23.40;99.90;;;;;;5093338;28;20024;-65
2021/09/08 07:48:41;;;;;;;12.68;9.13;;;23.40;99.90;;;;;;5095195;28;20639;-65
2021/09/08 07:51:07;;;;;;;13.73;9.65;;;23.40;99.90;;;;;;5076719;28;20110;-65
2021/09/08 07:53:34;;;;;;;12.73;9.80;;;23.40;99.90;;;;;;5098170;28;20126;-66
2021/09/08 07:56:00;;;;;;;10.85;8.73;;;23.40;99.90;;;;;;5115556;28;20027;-65
2021/09/08 07:58:25;;;;;;;14.38;9.27;;;23.40;99.90;;;;;;5114601;28;20121;-65
2021/09/08 08:00:51;;;;;;;11.93;9.07;;;23.40;99.90;;;;;;5093586;28;20376;-66
2021/09/08 08:03:19;;;;;;;13.48;9.60;;;23.40;99.90;;;;;;5093398;28;20460;-65
2021/09/08 08:05:44;;;;;;;12.30;9.38;;;23.40;99.90;;;;;;5093712;28;20370;-65
2021/09/08 08:08:10;;;;;;;11.30;8.95;;;23.40;99.90;;;;;;5094527;28;20103;-65
2021/09/08 08:10:36;;;;;;;14.45;9.63;;;23.40;99.90;;;;;;5099175;28;20024;-65
2021/09/08 08:13:02;;;;;;;14.60;9.63;;;23.40;99.90;;;;;;5094557;28;20036;-65
2021/09/08 08:15:28;;;;;;;11.57;8.77;;;23.40;99.90;;;;;;5094362;28;20024;-64
2021/09/08 08:17:53;;;;;;;13.40;8.77;;;23.40;99.90;;;;;;5094621;28;20515;-65
2021/09/08 08:20:20;;;;;;;12.48;8.68;;;23.40;99.90;;;;;;5095390;28;20186;-66
2021/09/08 08:22:46;;;;;;;9.85;8.60;;;23.40;99.90;;;;;;5094995;28;20055;-66
2021/09/08 08:25:15;;;;;;;12.18;8.57;;;23.40;99.90;;;;;;5103414;28;20062;-66
2021/09/08 08:27:40;;;;;;;13.18;9.15;;;23.40;99.90;;;;;;5114840;28;20098;-65
2021/09/08 08:30:09;;;;;;;11.40;8.98;;;23.40;99.90;;;;;;5114769;28;20057;-65
2021/09/08 08:32:35;;;;;;;11.75;8.57;;;23.40;99.90;;;;;;5114565;28;20035;-65
2021/09/08 08:35:01;;;;;;;11.50;9.02;;;23.40;99.90;;;;;;5114783;28;20023;-67
2021/09/08 08:37:26;;;;;;;9.65;8.15;;;23.40;99.90;;;;;;5114313;28;20027;-66
2021/09/08 08:39:52;;;;;;;11.15;8.40;;;23.40;99.90;;;;;;5110468;28;20030;-66
2021/09/08 08:42:23;;;;;;;10.50;8.50;;;23.40;99.90;;;;;;5093270;28;20107;-66
2021/09/08 08:44:50;;;;;;;9.70;7.93;;;23.40;99.90;;;;;;5094169;28;20024;-65
2021/09/08 08:47:16;;;;;;;10.13;8.57;;;23.40;99.90;;;;;;5093742;28;20085;-65
2021/09/08 08:49:44;;;;;;;11.75;8.05;;;23.40;99.90;;;;;;5093818;28;20043;-65
2021/09/08 08:52:10;;;;;;;10.48;8.07;;;23.40;99.90;;;;;;5093021;28;20036;-65
2021/09/08 08:54:36;;;;;;;11.90;8.15;;;23.40;99.90;;;;;;5104859;28;20019;-66
2021/09/08 08:57:02;;;;;;;11.35;8.23;;;23.40;99.90;;;;;;5097284;28;20085;-65
2021/09/08 08:59:28;;;;;;;9.85;7.90;;;23.40;99.90;;;;;;5092527;28;20441;-65
2021/09/08 09:01:53;;;;;;;13.02;8.43;;;23.40;99.90;;;;;;5092753;28;20024;-65
2021/09/08 09:04:19;;;;;;;11.43;8.05;;;23.40;99.90;;;;;;5093542;28;20024;-64
2021/09/08 09:06:50;;;;;;;10.95;8.23;;;23.50;99.90;;;;;;5092316;28;20016;-65
2021/09/08 09:09:19;;;;;;;12.30;8.35;;;23.40;99.90;;;;;;5092625;28;20020;-64
2021/09/08 09:11:48;;;;;;;9.70;7.85;;;23.40;99.90;;;;;;5097743;28;20024;-65
2021/09/08 09:14:15;;;;;;;9.63;7.70;;;23.50;99.90;;;;;;5092322;28;20128;-65
2021/09/08 09:16:42;;;;;;;10.27;8.05;;;23.50;99.90;;;;;;5092769;28;20532;-65
2021/09/08 09:19:12;;;;;;;12.25;8.27;;;23.50;99.90;;;;;;5093796;28;20468;-64
2021/09/08 09:21:39;;;;;;;9.38;8.02;;;23.50;99.90;;;;;;5091915;28;20028;-64
2021/09/08 09:24:07;;;;;;;11.18;7.43;;;23.50;99.90;;;;;;5094225;28;20055;-64
2021/09/08 09:26:36;;;;;;;12.52;7.97;;;23.50;99.90;;;;;;5094940;28;20503;-64
2021/09/08 09:29:13;;;;;;;10.50;7.57;;;23.50;99.90;;;;;;5092173;28;20068;-64
2021/09/08 09:32:07;;;;;;;10.63;7.55;;;23.50;99.90;;;;;;5072991;28;20372;-65
2021/09/08 09:34:33;;;;;;;9.25;7.63;;;23.50;99.90;;;;;;5073251;28;20448;-64
2021/09/08 09:37:00;;;;;;;8.82;7.57;;;23.50;99.90;;;;;;5072688;28;20033;-64
2021/09/08 09:39:33;;;;;;;9.65;7.57;;;23.50;99.90;;;;;;5072624;28;20074;-64
2021/09/08 09:42:07;;;;;;;10.40;8.00;;;23.50;99.90;;;;;;5105651;28;20020;-65
2021/09/08 09:44:33;;;;;;;;;;;23.60;99.90;;;;;;5110143;28;20464;-64
2021/09/08 09:47:02;;;;;;;9.32;7.35;;;23.60;99.90;;;;;;5092048;28;19930;-64
2021/09/08 09:49:33;;;;;;;10.15;7.63;;;23.60;99.90;;;;;;5092550;28;20387;-64
2021/09/08 09:52:03;;;;;;;9.27;7.63;;;23.60;99.90;;;;;;5092379;28;20036;-65
2021/09/08 09:54:28;;;;;;;9.10;7.43;;;23.60;99.90;;;;;;5074474;28;20031;-65
2021/09/08 09:56:55;;;;;;;12.57;7.93;;;23.60;99.90;;;;;;5105393;28;20024;-65
2021/09/08 09:59:22;;;;;;;10.25;7.43;;;23.60;99.90;;;;;;5112824;28;20020;-65
2021/09/08 10:01:48;;;;;;;8.55;7.10;;;23.60;99.90;;;;;;5113323;28;20065;-66
2021/09/08 10:04:14;;;;;;;10.65;7.63;;;23.60;99.90;;;;;;5093071;28;20024;-66
2021/09/08 10:06:40;;;;;;;11.20;7.38;;;23.60;99.90;;;;;;5092551;28;20043;-65
2021/09/08 10:09:10;;;;;;;9.75;7.65;;;23.60;99.90;;;;;;5091630;28;20020;-66
2021/09/08 10:11:44;;;;;;;8.23;7.07;;;23.60;99.90;;;;;;5095359;28;20016;-65
2021/09/08 10:14:14;;;;;;;8.77;7.03;;;23.60;99.90;;;;;;5092120;28;20118;-65
2021/09/08 10:16:45;;;;;;;9.00;6.95;;;23.60;99.90;;;;;;5091924;28;20519;-67
2021/09/08 10:19:11;;;;;;;9.20;7.40;;;23.60;99.90;;;;;;5091681;28;20034;-64
2021/09/08 10:21:37;;;;;;;9.32;7.85;;;23.70;99.90;;;;;;5092291;28;20032;-66
2021/09/08 10:24:04;;;;;;;8.25;7.03;;;23.70;99.90;;;;;;5092360;28;20024;-65
2021/09/08 10:26:33;;;;;;;9.63;7.43;;;23.70;99.90;;;;;;5096988;28;20051;-65
2021/09/08 10:29:08;;;;;;;9.90;7.63;;;23.70;99.90;;;;;;5112240;28;20092;-65
2021/09/08 10:31:43;;;;;;;8.20;6.82;;;23.70;99.90;;;;;;5112595;28;20027;-67
2021/09/08 10:34:11;;;;;;;9.48;7.40;;;23.70;99.90;;;;;;5102936;28;20040;-67
2021/09/08 10:36:38;;;;;;;7.90;7.10;;;23.70;99.90;;;;;;5092015;28;20447;-65
2021/09/08 10:39:06;;;;;;;10.85;7.65;;;23.70;99.90;;;;;;5092563;28;20059;-65
2021/09/08 10:41:49;;;;;;;9.55;7.68;;;23.70;99.90;;;;;;5094594;28;20059;-66
2021/09/08 10:44:17;;;;;;;12.55;7.90;;;23.70;99.90;;;;;;5094238;28;20027;-67
2021/09/08 10:46:54;;;;;;;12.10;8.00;;;23.80;99.90;;;;;;5112217;28;20392;-67
2021/09/08 10:49:38;;;;;;;10.77;7.13;;;23.80;99.90;;;;;;5112218;28;20035;-65
2021/09/08 10:52:08;;;;;;;10.02;7.53;;;23.80;99.90;;;;;;5111961;28;20126;-66
2021/09/08 10:54:56;;;;;;;10.20;7.45;;;23.80;99.90;;;;;;5112060;28;20097;-67
2021/09/08 10:57:44;;;;;;;10.18;7.97;;;23.80;99.90;;;;;;5103203;28;20031;-65
2021/09/08 11:00:12;;;;;;;13.15;8.93;;;23.80;99.90;;;;;;5080601;28;20040;-66
2021/09/08 11:02:47;;;;;;;17.23;11.75;;;23.90;99.90;;;;;;5099464;28;20094;-66
2021/09/08 11:05:13;;;;;;;18.92;13.13;;;23.90;99.90;;;;;;5111956;28;20103;-65
2021/09/08 11:07:39;;;;;;;18.20;12.68;;;23.90;99.90;;;;;;5111903;28;20038;-68
2021/09/08 11:10:05;;;;;;;16.92;11.60;;;23.90;99.90;;;;;;5110058;28;20421;-67
2021/09/08 11:12:48;;;;;;;15.07;10.77;;;23.90;99.90;;;;;;5111466;28;20466;-66
2021/09/08 11:15:15;;;;;;;16.83;10.43;;;23.90;99.90;;;;;;5108044;28;20035;-67
2021/09/08 11:17:40;;;;;;;15.15;11.20;;;23.90;99.90;;;;;;5091716;28;20353;-65
2021/09/08 11:20:08;;;;;;;15.75;10.40;;;23.90;99.90;;;;;;5102432;28;20047;-65
2021/09/08 11:22:34;;;;;;;12.77;9.63;;;23.90;99.90;;;;;;5116100;28;20042;-66
2021/09/08 11:25:01;;;;;;;13.98;9.90;;;24.00;99.90;;;;;;5115954;28;20106;-66
2021/09/08 11:27:27;;;;;;;14.55;9.82;;;24.00;99.90;;;;;;5111829;28;20089;-65
2021/09/08 11:30:11;;;;;;;12.05;8.88;;;24.00;99.90;;;;;;5094346;28;20032;-66
2021/09/08 11:33:03;;;;;;;12.25;8.98;;;24.10;99.90;;;;;;5094600;28;20133;-64
2021/09/08 11:35:50;;;;;;;14.68;10.05;;;24.10;99.90;;;;;;5097921;28;20488;-65
2021/09/08 11:38:40;;;;;;;11.52;9.20;;;24.10;99.90;;;;;;5094222;28;20027;-65
2021/09/08 11:41:06;;;;;;;15.48;8.88;;;24.10;99.90;;;;;;5077093;28;20037;-65
2021/09/08 11:43:42;;;;;;;11.07;8.43;;;24.10;99.90;;;;;;5096116;28;20064;-65
2021/09/08 11:46:23;;;;;;;11.30;8.30;;;24.10;99.90;;;;;;5094778;28;20028;-66
2021/09/08 11:48:50;;;;;;;10.00;8.13;;;24.20;99.90;;;;;;5077284;28;20534;-66
2021/09/08 11:51:19;;;;;;;10.10;8.30;;;24.20;99.90;;;;;;5102460;28;20031;-67
2021/09/08 11:53:46;;;;;;;9.40;8.05;;;24.20;99.90;;;;;;5095187;28;20504;-65
2021/09/08 11:56:14;;;;;;;10.50;7.95;;;24.20;99.90;;;;;;5094753;28;20456;-66
2021/09/08 11:58:48;;;;;;;9.82;7.57;;;24.20;99.90;;;;;;5094834;28;20032;-66
2021/09/08 12:01:13;;;;;;;10.27;7.65;;;24.20;99.90;;;;;;5095348;28;20077;-65
2021/09/08 12:03:44;;;;;;;9.35;7.60;;;24.20;99.90;;;;;;5097312;28;20060;-66
2021/09/08 12:06:19;;;;;;;9.07;7.13;;;24.30;99.90;;;;;;5095945;28;20039;-66
2021/09/08 12:08:53;;;;;;;8.27;6.93;;;24.30;99.90;;;;;;5094921;28;20039;-66
2021/09/08 12:11:31;;;;;;;7.85;6.65;;;24.30;99.90;;;;;;5094842;28;20016;-65
2021/09/08 12:14:13;;;;;;;8.85;7.22;;;24.30;99.90;;;;;;5094742;28;20032;-66
2021/09/08 12:16:39;;;;;;;9.05;7.10;;;24.40;99.90;;;;;;5094737;28;20020;-65
2021/09/08 12:19:32;;;;;;;9.15;6.72;;;24.40;99.90;;;;;;5094641;28;20381;-66
2021/09/08 12:22:05;;;;;;;8.07;6.53;;;24.40;99.90;;;;;;5096592;28;20075;-65
2021/09/08 12:24:39;;;;;;;7.13;6.15;;;24.40;99.90;;;;;;5094389;28;20020;-66
2021/09/08 12:27:41;;;;;;;9.90;6.25;;;24.40;99.90;;;;;;5094706;28;20126;-65
2021/09/08 12:30:19;;;;;;;8.00;6.45;;;24.50;99.90;;;;;;5094106;28;20467;-67
2021/09/08 12:33:02;;;;;;;8.05;6.38;;;24.50;99.90;;;;;;5093127;28;20040;-66
2021/09/08 12:35:43;;;;;;;7.55;6.30;;;24.50;99.90;;;;;;5096028;28;20089;-65
2021/09/08 12:38:28;;;;;;;6.95;6.15;;;24.50;99.90;;;;;;5114326;28;20034;-65
2021/09/08 12:41:11;;;;;;;6.63;5.93;;;24.60;99.90;;;;;;5114999;28;20136;-66
2021/09/08 12:43:38;;;;;;;8.48;6.18;;;24.50;99.90;;;;;;5112386;28;20050;-65
2021/09/08 12:46:04;;;;;;;7.75;5.63;;;24.60;99.90;;;;;;5114668;28;20119;-65